createdAt,value
2022-10-16T00:01:19.387Z,68755.81
2022-10-16T00:03:48.331Z,68758.09
2022-10-16T00:06:18.033Z,68759.41
2022-10-16T00:08:46.137Z,68756.41
2022-10-16T00:11:17.291Z,68743.31
2022-10-16T00:13:46.177Z,68733.47
2022-10-16T00:16:14.586Z,68719.47
2022-10-16T00:18:42.699Z,68728.16
2022-10-16T00:21:19.573Z,68725.13
2022-10-16T00:23:47.472Z,68716.41
2022-10-16T00:26:18.342Z,68716.03
2022-10-16T00:28:50.359Z,68700.63
2022-10-16T00:31:19.679Z,68730.63
2022-10-16T00:33:47.043Z,68727.03
2022-10-16T00:36:17.205Z,68729.69
2022-10-16T00:38:44.888Z,68736.69
2022-10-16T00:41:16.275Z,68746.34
2022-10-16T00:43:46.351Z,68745.03
2022-10-16T00:46:21.242Z,68746.91
2022-10-16T00:49:17.838Z,68754.47
2022-10-16T00:51:48.126Z,68734.72
2022-10-16T00:54:28.816Z,68766.81
2022-10-16T00:56:59.583Z,68770.06
2022-10-16T00:59:43.501Z,68767.19
2022-10-16T01:02:15.293Z,68770.22
2022-10-16T01:04:51.500Z,68764.94
2022-10-16T01:07:28.051Z,68752.59
2022-10-16T01:10:10.806Z,68751.84
2022-10-16T01:12:49.370Z,68744.44
2022-10-16T01:15:20.802Z,68732.72
2022-10-16T01:18:15.864Z,68730.06
2022-10-16T01:20:48.999Z,68727.41
2022-10-16T01:23:44.776Z,68724.38
2022-10-16T01:26:15.786Z,68724.75
2022-10-16T01:28:45.920Z,68721.34
2022-10-16T01:31:19.356Z,68712.25
2022-10-16T01:36:29.935Z,68726.09
2022-10-16T01:39:02.439Z,68716.22
2022-10-16T01:41:34.951Z,68723.03
2022-10-16T01:44:33.560Z,68727.59
2022-10-16T01:47:01.935Z,68721.34
2022-10-16T01:49:33.888Z,68705.44
2022-10-16T01:52:05.270Z,68716.03
2022-10-16T01:54:35.320Z,68706.56
2022-10-16T01:57:04.875Z,68680.19
2022-10-16T01:59:36.561Z,68689.50
2022-10-16T02:02:09.158Z,68701.25
2022-10-16T02:04:54.308Z,68696.72
2022-10-16T02:07:21.698Z,68709.41
2022-10-16T02:09:48.988Z,68703.34
2022-10-16T02:12:28.641Z,68713.56
2022-10-16T02:14:56.287Z,68713.59
2022-10-16T02:17:23.931Z,68701.81
2022-10-16T02:19:54.980Z,68695.19
2022-10-16T02:22:33.229Z,68700.31
2022-10-16T02:25:07.202Z,68708.81
2022-10-16T02:27:54.796Z,68713.78
2022-10-16T02:30:36.899Z,68709.81
2022-10-16T02:33:07.398Z,68722.47
2022-10-16T02:35:35.383Z,68717.16
2022-10-16T02:38:03.048Z,68711.69
2022-10-16T02:40:30.692Z,68712.81
2022-10-16T02:42:57.944Z,68708.25
2022-10-16T02:45:30.297Z,68708.25
2022-10-16T02:47:57.892Z,68719.47
2022-10-16T02:50:26.182Z,68712.81
2022-10-16T02:52:53.517Z,68712.63
2022-10-16T02:55:20.785Z,68710.34
2022-10-16T02:57:48.124Z,68705.75
2022-10-16T03:00:18.107Z,68730.44
2022-10-16T03:02:45.447Z,68728.34
2022-10-16T03:05:12.745Z,68721.91
2022-10-16T03:07:40.609Z,68722.84
2022-10-16T03:10:08.378Z,68703.47
2022-10-16T03:12:35.689Z,68728.53
2022-10-16T03:15:03.550Z,68737.63
2022-10-16T03:17:31.012Z,68727.41
2022-10-16T03:19:58.379Z,68735.38
2022-10-16T03:22:25.603Z,68739.91
2022-10-16T03:24:53.045Z,68735.53
2022-10-16T03:27:20.293Z,68723.59
2022-10-16T03:29:47.531Z,68726.06
2022-10-16T03:32:14.738Z,68726.84
2022-10-16T03:34:42.093Z,68729.28
2022-10-16T03:37:10.083Z,68701.78
2022-10-16T03:39:37.324Z,68731.56
2022-10-16T03:42:04.611Z,68735.19
2022-10-16T03:44:32.013Z,68729.69
2022-10-16T03:46:59.260Z,68731.97
2022-10-16T03:49:26.514Z,68701.78
2022-10-16T03:51:53.751Z,68715.47
2022-10-16T03:54:21.123Z,68714.50
2022-10-16T03:56:48.498Z,68713.19
2022-10-16T03:59:15.877Z,68707.13
2022-10-16T04:01:43.152Z,68708.09
2022-10-16T04:04:10.348Z,68708.66
2022-10-16T04:06:37.552Z,68704.13
2022-10-16T04:09:05.696Z,68704.13
2022-10-16T04:11:33.114Z,68698.03
2022-10-16T04:14:00.684Z,68695.78
2022-10-16T04:16:28.185Z,68691.97
2022-10-16T04:18:55.463Z,68702.41
2022-10-16T04:21:23.478Z,68678.47
2022-10-16T04:23:50.833Z,68685.88
2022-10-16T04:26:18.062Z,68716.59
2022-10-16T04:28:45.427Z,68722.84
2022-10-16T04:31:12.708Z,68697.78
2022-10-16T04:33:40.251Z,68725.13
2022-10-16T04:36:07.669Z,68732.34
2022-10-16T04:38:35.044Z,68732.72
2022-10-16T04:41:02.325Z,68730.81
2022-10-16T04:43:32.825Z,68734.41
2022-10-16T04:46:00.252Z,68728.34
2022-10-16T04:48:27.503Z,68741.63
2022-10-16T04:50:55.339Z,68723.34
2022-10-16T04:53:22.646Z,68747.09
2022-10-16T04:55:51.647Z,68747.88
2022-10-16T04:58:19.054Z,68747.47
2022-10-16T05:00:47.836Z,68749.56
2022-10-16T05:03:15.299Z,68747.88
2022-10-16T05:05:46.860Z,68745.59
2022-10-16T05:08:15.717Z,68733.66
2022-10-16T05:10:44.038Z,68734.63
2022-10-16T05:13:11.938Z,68724.16
2022-10-16T05:15:39.141Z,68715.09
2022-10-16T05:18:06.397Z,68719.47
2022-10-16T05:20:33.881Z,68713.00
2022-10-16T05:23:01.291Z,68720.59
2022-10-16T05:25:28.653Z,68714.50
2022-10-16T05:27:55.882Z,68685.88
2022-10-16T05:30:23.374Z,68707.50
2022-10-16T05:32:51.864Z,68701.81
2022-10-16T05:35:20.815Z,68707.69
2022-10-16T05:37:48.804Z,68714.13
2022-10-16T05:40:17.775Z,68716.03
2022-10-16T05:42:45.055Z,68710.16
2022-10-16T05:45:13.479Z,68710.53
2022-10-16T05:47:40.847Z,68709.41
2022-10-16T05:50:08.509Z,68702.78
2022-10-16T05:52:35.878Z,68702.41
2022-10-16T05:55:03.498Z,68695.78
2022-10-16T05:57:31.155Z,68682.44
2022-10-16T05:59:58.946Z,68712.25
2022-10-16T06:02:26.242Z,68713.38
2022-10-16T06:04:54.896Z,68706.16
2022-10-16T06:07:23.965Z,68722.47
2022-10-16T06:09:53.243Z,68691.53
2022-10-16T06:12:21.070Z,68701.78
2022-10-16T06:14:48.492Z,68723.22
2022-10-16T06:17:16.321Z,68730.81
2022-10-16T06:19:43.482Z,68738.75
2022-10-16T06:22:10.727Z,68745.03
2022-10-16T06:24:38.037Z,68739.53
2022-10-16T06:27:05.895Z,68746.75
2022-10-16T06:29:33.414Z,68742.94
2022-10-16T06:32:00.852Z,68735.53
2022-10-16T06:34:28.273Z,68738.41
2022-10-16T06:36:56.438Z,68753.56
2022-10-16T06:39:23.694Z,68769.09
2022-10-16T06:41:51.171Z,68765.69
2022-10-16T06:44:18.572Z,68755.75
2022-10-16T06:46:45.748Z,68769.66
2022-10-16T06:49:13.073Z,68767.38
2022-10-16T06:51:43.320Z,68768.34
2022-10-16T06:54:11.330Z,68756.97
2022-10-16T06:56:38.826Z,68761.50
2022-10-16T06:59:06.093Z,68764.53
2022-10-16T07:01:34.199Z,68770.63
2022-10-16T07:04:03.033Z,68784.25
2022-10-16T07:06:33.466Z,68795.03
2022-10-16T07:09:03.584Z,68773.38
2022-10-16T07:11:30.851Z,68797.34
2022-10-16T07:13:59.216Z,68810.06
2022-10-16T07:16:29.163Z,68821.06
2022-10-16T07:19:01.136Z,68827.28
2022-10-16T07:21:36.283Z,68811.47
2022-10-16T07:24:08.038Z,68809.22
2022-10-16T07:26:38.013Z,68835.66
2022-10-16T07:29:05.688Z,68840.75
2022-10-16T07:31:33.096Z,68827.41
2022-10-16T07:34:01.139Z,68863.50
2022-10-16T07:36:28.970Z,68838.78
2022-10-16T07:38:58.974Z,68870.72
2022-10-16T07:41:28.198Z,68849.59
2022-10-16T07:43:55.935Z,68888.94
2022-10-16T07:46:23.527Z,68862.66
2022-10-16T07:48:50.592Z,68888.94
2022-10-16T07:51:20.730Z,68866.66
2022-10-16T07:53:48.783Z,68870.06
2022-10-16T07:56:17.120Z,68870.63
2022-10-16T07:58:44.938Z,68879.72
2022-10-16T08:01:14.704Z,68889.38
2022-10-16T08:04:00.472Z,68911.47
2022-10-16T08:06:28.231Z,68912.84
2022-10-16T08:08:56.358Z,68909.03
2022-10-16T08:11:24.355Z,68915.09
2022-10-16T08:13:51.728Z,68905.22
2022-10-16T08:16:19.085Z,68889.38
2022-10-16T08:18:46.947Z,68922.09
2022-10-16T08:21:20.148Z,68949.28
2022-10-16T08:23:54.476Z,68939.50
2022-10-16T08:26:24.681Z,68961.09
2022-10-16T08:28:52.849Z,68992.16
2022-10-16T08:31:20.589Z,68983.88
2022-10-16T08:33:48.756Z,68991.28
2022-10-16T08:36:17.288Z,68999.81
2022-10-16T08:38:45.060Z,69042.09
2022-10-16T08:41:31.390Z,69046.84
2022-10-16T08:44:20.789Z,69035.13
2022-10-16T08:47:10.665Z,69069.06
2022-10-16T08:52:15.119Z,69092.41
2022-10-16T08:54:47.579Z,69085.97
2022-10-16T08:57:23.254Z,69095.09
2022-10-16T08:59:52.850Z,69142.56
2022-10-16T09:02:34.298Z,69138.00
2022-10-16T09:05:20.712Z,69097.22
2022-10-16T09:08:03.765Z,69102.28
2022-10-16T09:10:57.534Z,69064.78
2022-10-16T09:13:30.900Z,69092.66
2022-10-16T09:16:17.161Z,69106.91
2022-10-16T09:18:55.721Z,69161.97
2022-10-16T09:21:28.434Z,69198.69
2022-10-16T09:24:00.403Z,69240.63
2022-10-16T09:26:27.787Z,69216.38
2022-10-16T09:28:55.214Z,69251.47
2022-10-16T09:31:23.595Z,69211.78
2022-10-16T09:33:59.269Z,69220.84
2022-10-16T09:36:29.168Z,69214.06
2022-10-16T09:39:08.817Z,69210.06
2022-10-16T09:41:39.752Z,69203.25
2022-10-16T09:44:24.351Z,69199.25
2022-10-16T09:47:14.092Z,69208.94
2022-10-16T09:49:52.622Z,69255.28
2022-10-16T09:52:20.858Z,69239.75
2022-10-16T09:54:56.377Z,69252.84
2022-10-16T09:57:25.114Z,69283.84
2022-10-16T09:59:57.522Z,69271.69
2022-10-16T10:02:33.237Z,69275.66
2022-10-16T10:05:01.113Z,69306.66
2022-10-16T10:07:36.609Z,69276.25
2022-10-16T10:10:06.612Z,69269.41
2022-10-16T10:12:36.680Z,69262.00
2022-10-16T10:15:20.913Z,69307.38
2022-10-16T10:17:51.575Z,69347.75
2022-10-16T10:20:35.581Z,69349.84
2022-10-16T10:23:22.064Z,69383.91
2022-10-16T10:26:08.705Z,69373.81
2022-10-16T10:29:09.181Z,69348.72
2022-10-16T10:31:49.820Z,69353.84
2022-10-16T10:34:56.592Z,69346.41
2022-10-16T10:37:32.067Z,69389.81
2022-10-16T10:40:08.445Z,69417.00
2022-10-16T10:42:58.774Z,69394.72
2022-10-16T10:45:35.406Z,69358.97
2022-10-16T10:48:43.141Z,69367.91
2022-10-16T10:51:19.728Z,69350.78
2022-10-16T10:54:00.774Z,69313.91
2022-10-16T10:56:49.586Z,69334.22
2022-10-16T10:59:36.710Z,69317.31
2022-10-16T11:02:22.837Z,69322.44
2022-10-16T11:05:14.597Z,69350.41
2022-10-16T11:07:48.443Z,69429.56
2022-10-16T11:10:30.680Z,69442.31
2022-10-16T11:13:43.610Z,69428.41
2022-10-16T11:16:29.377Z,69423.84
2022-10-16T11:19:28.857Z,69429.41
2022-10-16T11:22:07.162Z,69421.16
2022-10-16T11:24:42.509Z,69391.53
2022-10-16T11:27:16.119Z,69407.88
2022-10-16T11:29:59.278Z,69394.56
2022-10-16T11:32:58.970Z,69390.72
2022-10-16T11:35:56.316Z,69390.41
2022-10-16T11:38:44.079Z,69374.97
2022-10-16T11:41:20.473Z,69389.03
2022-10-16T11:43:59.438Z,69357.84
2022-10-16T11:46:28.520Z,69377.25
2022-10-16T11:49:05.022Z,69430.94
2022-10-16T11:51:44.168Z,69432.59
2022-10-16T11:54:32.593Z,69396.63
2022-10-16T11:57:13.013Z,69389.22
2022-10-16T12:00:08.017Z,69399.28
2022-10-16T12:02:46.981Z,69418.91
2022-10-16T12:05:30.897Z,69462.84
2022-10-16T12:08:03.402Z,69448.63
2022-10-16T12:10:33.232Z,69435.28
2022-10-16T12:13:00.481Z,69415.84
2022-10-16T12:15:54.102Z,69394.38
2022-10-16T12:18:26.146Z,69384.66
2022-10-16T12:21:05.818Z,69420.41
2022-10-16T12:23:37.647Z,69414.34
2022-10-16T12:26:05.826Z,69408.03
2022-10-16T12:28:34.790Z,69410.16
2022-10-16T12:31:07.319Z,69361.25
2022-10-16T12:33:37.345Z,69360.69
2022-10-16T12:36:35.341Z,69367.53
2022-10-16T12:39:03.789Z,69405.41
2022-10-16T12:41:36.909Z,69413.00
2022-10-16T12:44:04.746Z,69418.38
2022-10-16T12:46:34.140Z,69389.81
2022-10-16T12:49:30.045Z,69396.44
2022-10-16T12:51:58.158Z,69385.03
2022-10-16T12:54:31.444Z,69381.44
2022-10-16T12:57:23.497Z,69342.41
2022-10-16T13:00:06.555Z,69347.56
2022-10-16T13:02:42.737Z,69356.47
2022-10-16T13:05:34.245Z,69360.28
2022-10-16T13:08:04.611Z,69358.19
2022-10-16T13:11:03.637Z,69347.91
2022-10-16T13:13:59.210Z,69346.19
2022-10-16T13:16:44.628Z,69346.78
2022-10-16T13:19:45.436Z,69309.31
2022-10-16T13:22:24.817Z,69335.38
2022-10-16T13:24:54.808Z,69339.34
2022-10-16T13:28:05.169Z,69332.91
2022-10-16T13:30:57.883Z,69321.66
2022-10-16T13:33:37.206Z,69316.38
2022-10-16T13:36:06.144Z,69303.81
2022-10-16T13:38:37.687Z,69275.66
2022-10-16T13:41:13.970Z,69269.97
2022-10-16T13:43:51.829Z,69293.13
2022-10-16T13:46:24.208Z,69281.56
2022-10-16T13:49:05.600Z,69283.44
2022-10-16T13:51:34.148Z,69293.53
2022-10-16T13:54:01.599Z,69309.66
2022-10-16T13:56:33.766Z,69322.78
2022-10-16T13:59:24.040Z,69335.38
2022-10-16T14:01:55.212Z,69343.75
2022-10-16T14:04:26.082Z,69331.38
2022-10-16T14:07:02.276Z,69308.75
2022-10-16T14:09:31.784Z,69312.19
2022-10-16T14:12:05.094Z,69314.47
2022-10-16T14:14:42.603Z,69304.75
2022-10-16T14:17:36.739Z,69330.78
2022-10-16T14:20:07.431Z,69339.91
2022-10-16T14:22:37.383Z,69332.50
2022-10-16T14:25:29.799Z,69324.50
2022-10-16T14:28:05.551Z,69333.66
2022-10-16T14:30:36.927Z,69349.06
2022-10-16T14:33:25.055Z,69318.44
2022-10-16T14:36:09.833Z,69331.75
2022-10-16T14:38:38.894Z,69336.34
2022-10-16T14:41:06.923Z,69329.66
2022-10-16T14:43:40.672Z,69312.19
2022-10-16T14:46:16.945Z,69317.31
2022-10-16T14:48:48.318Z,69309.31
2022-10-16T14:51:17.013Z,69327.59
2022-10-16T14:53:44.275Z,69326.63
2022-10-16T14:56:20.688Z,69314.47
2022-10-16T14:58:49.102Z,69272.84
2022-10-16T15:01:16.294Z,69283.59
2022-10-16T15:03:44.119Z,69256.28
2022-10-16T15:06:16.209Z,69269.19
2022-10-16T15:08:44.053Z,69285.31
2022-10-16T15:11:14.930Z,69269.41
2022-10-16T15:13:42.228Z,69280.81
2022-10-16T15:16:13.313Z,69289.91
2022-10-16T15:18:40.515Z,69295.97
2022-10-16T15:21:08.360Z,69284.00
2022-10-16T15:23:35.600Z,69271.47
2022-10-16T15:26:03.020Z,69245.47
2022-10-16T15:28:30.374Z,69265.75
2022-10-16T15:30:58.372Z,69238.59
2022-10-16T15:33:37.151Z,69257.00
2022-10-16T15:36:07.861Z,69242.34
2022-10-16T15:38:35.244Z,69244.47
2022-10-16T15:41:02.839Z,69218.97
2022-10-16T15:43:30.242Z,69204.13
2022-10-16T15:46:06.917Z,69222.97
2022-10-16T15:48:34.697Z,69212.88
2022-10-16T15:51:05.422Z,69201.69
2022-10-16T15:53:32.657Z,69184.44
2022-10-16T15:56:03.247Z,69204.53
2022-10-16T15:58:31.335Z,69205.84
2022-10-16T16:01:01.959Z,69182.72
2022-10-16T16:03:29.648Z,69210.09
2022-10-16T16:05:57.106Z,69207.97
2022-10-16T16:08:24.515Z,69200.16
2022-10-16T16:11:01.749Z,69208.72
2022-10-16T16:13:29.366Z,69191.59
2022-10-16T16:15:56.554Z,69186.88
2022-10-16T16:18:24.916Z,69180.19
2022-10-16T16:20:53.259Z,69167.66
2022-10-16T16:23:21.074Z,69155.66
2022-10-16T16:26:03.366Z,69133.13
2022-10-16T16:28:31.164Z,69140.09
2022-10-16T16:30:58.498Z,69132.13
2022-10-16T16:33:25.773Z,69130.03
2022-10-16T16:36:01.041Z,69109.75
2022-10-16T16:38:29.386Z,69129.28
2022-10-16T16:40:56.831Z,69123.00
2022-10-16T16:43:26.030Z,69115.03
2022-10-16T16:45:54.447Z,69113.91
2022-10-16T16:48:22.902Z,69088.13
2022-10-16T16:50:50.172Z,69109.53
2022-10-16T16:53:17.582Z,69101.34
2022-10-16T16:55:44.870Z,69094.34
2022-10-16T16:58:12.744Z,69057.91
2022-10-16T17:00:56.339Z,69074.00
2022-10-16T17:03:31.602Z,69057.09
2022-10-16T17:06:07.791Z,69037.44
2022-10-16T17:08:36.688Z,69052.53
2022-10-16T17:11:05.151Z,69040.00
2022-10-16T17:13:37.077Z,69035.25
2022-10-16T17:16:05.943Z,69010.09
2022-10-16T17:18:34.081Z,69026.50
2022-10-16T17:21:07.919Z,69030.72
2022-10-16T17:23:36.573Z,69019.66
2022-10-16T17:26:15.249Z,69017.22
2022-10-16T17:28:43.244Z,68996.41
2022-10-16T17:31:19.949Z,69018.16
2022-10-16T17:33:47.531Z,68991.84
2022-10-16T17:36:15.423Z,68996.41
2022-10-16T17:38:43.222Z,69013.63
2022-10-16T17:41:14.448Z,69014.19
2022-10-16T17:43:42.523Z,69009.63
2022-10-16T17:46:11.066Z,68982.72
2022-10-16T17:48:40.426Z,69023.09
2022-10-16T17:51:09.433Z,69011.91
2022-10-16T17:53:37.920Z,68984.44
2022-10-16T17:56:07.512Z,69010.78
2022-10-16T17:58:35.490Z,69020.44
2022-10-16T18:01:12.158Z,69027.13
2022-10-16T18:03:39.618Z,69038.50
2022-10-16T18:06:06.973Z,69035.44
2022-10-16T18:08:37.362Z,69022.03
2022-10-16T18:11:05.742Z,69028.31
2022-10-16T18:13:33.488Z,69049.69
2022-10-16T18:16:03.863Z,69054.81
2022-10-16T18:18:31.266Z,69040.38
2022-10-16T18:21:00.015Z,69051.41
2022-10-16T18:23:27.855Z,69046.28
2022-10-16T18:25:55.590Z,69044.19
2022-10-16T18:28:23.217Z,69025.19
2022-10-16T18:31:01.061Z,69020.44
2022-10-16T18:33:30.809Z,69011.34
2022-10-16T18:36:07.053Z,68983.31
2022-10-16T18:38:35.587Z,69007.34
2022-10-16T18:41:05.673Z,68995.41
2022-10-16T18:43:34.312Z,68980.75
2022-10-16T18:46:08.211Z,68980.22
2022-10-16T18:48:35.892Z,68962.94
2022-10-16T18:51:13.259Z,68966.53
2022-10-16T18:53:43.568Z,68974.34
2022-10-16T18:56:11.884Z,68944.63
2022-10-16T18:58:41.210Z,68961.22
2022-10-16T19:01:17.470Z,68955.16
2022-10-16T19:03:44.901Z,68945.88
2022-10-16T19:06:14.590Z,68932.97
2022-10-16T19:08:42.785Z,68908.75
2022-10-16T19:11:13.157Z,68944.91
2022-10-16T19:13:41.294Z,68946.78
2022-10-16T19:16:22.068Z,68976.41
2022-10-16T19:18:51.617Z,68970.78
2022-10-16T19:21:20.024Z,69000.50
2022-10-16T19:24:11.408Z,69000.69
2022-10-16T19:26:41.190Z,68985.88
2022-10-16T19:29:10.810Z,68979.63
2022-10-16T19:31:39.017Z,68968.06
2022-10-16T19:34:07.560Z,68956.09
2022-10-16T19:36:36.746Z,68934.84
2022-10-16T19:39:07.682Z,68941.31
2022-10-16T19:41:37.104Z,68913.31
2022-10-16T19:44:07.521Z,68918.44
2022-10-16T19:46:35.591Z,68912.75
2022-10-16T19:49:07.367Z,68911.63
2022-10-16T19:51:35.370Z,68928.22
2022-10-16T19:54:05.990Z,68923.81
2022-10-16T19:56:35.253Z,68926.69
2022-10-16T19:59:03.469Z,68927.81
2022-10-16T20:01:32.477Z,68931.81
2022-10-16T20:04:05.221Z,68929.53
2022-10-16T20:06:32.938Z,68932.97
2022-10-16T20:09:00.388Z,68916.16
2022-10-16T20:11:34.119Z,68913.31
2022-10-16T20:14:02.307Z,68932.41
2022-10-16T20:16:31.059Z,68903.66
2022-10-16T20:18:59.345Z,68932.97
2022-10-16T20:21:30.088Z,68921.94
2022-10-16T20:23:59.602Z,68910.16
2022-10-16T20:26:27.212Z,68912.28
2022-10-16T20:28:54.930Z,68915.09
2022-10-16T20:31:28.261Z,68904.47
2022-10-16T20:33:57.194Z,68908.47
2022-10-16T20:36:26.408Z,68881.44
2022-10-16T20:38:53.953Z,68900.31
2022-10-16T20:41:21.624Z,68906.56
2022-10-16T20:43:50.743Z,68910.56
2022-10-16T20:46:21.904Z,68911.13
2022-10-16T20:48:50.207Z,68896.50
2022-10-16T20:51:20.067Z,68888.75
2022-10-16T20:53:52.943Z,68893.47
2022-10-16T20:56:20.448Z,68868.34
2022-10-16T20:58:47.688Z,68880.59
2022-10-16T21:01:17.227Z,68887.22
2022-10-16T21:03:49.405Z,68872.63
2022-10-16T21:06:16.585Z,68875.84
2022-10-16T21:08:44.041Z,68868.44
2022-10-16T21:11:24.928Z,68867.31
2022-10-16T21:13:54.062Z,68865.63
2022-10-16T21:16:22.241Z,68852.53
2022-10-16T21:18:49.909Z,68845.72
2022-10-16T21:21:28.159Z,68841.72
2022-10-16T21:23:57.348Z,68831.06
2022-10-16T21:26:28.512Z,68843.41
2022-10-16T21:29:01.030Z,68832.22
2022-10-16T21:31:28.497Z,68834.72
2022-10-16T21:33:56.667Z,68824.81
2022-10-16T21:36:29.746Z,68801.25
2022-10-16T21:39:01.490Z,68818.97
2022-10-16T21:41:29.798Z,68827.09
2022-10-16T21:43:58.205Z,68842.84
2022-10-16T21:46:29.432Z,68836.59
2022-10-16T21:48:57.774Z,68818.31
2022-10-16T21:51:31.274Z,68840.03
2022-10-16T21:53:58.527Z,68835.06
2022-10-16T21:56:25.840Z,68831.06
2022-10-16T21:58:53.090Z,68830.34
2022-10-16T22:01:22.440Z,68818.19
2022-10-16T22:03:50.678Z,68829.59
2022-10-16T22:08:55.239Z,68820.09
2022-10-16T22:11:25.780Z,68801.69
2022-10-16T22:13:56.405Z,68771.09
2022-10-16T22:16:26.501Z,68790.13
2022-10-16T22:18:55.781Z,68782.16
2022-10-16T22:21:24.234Z,68777.06
2022-10-16T22:23:51.559Z,68750.06
2022-10-16T22:26:18.941Z,68787.09
2022-10-16T22:28:46.299Z,68793.91
2022-10-16T22:31:14.865Z,68788.78
2022-10-16T22:33:42.916Z,68789.94
2022-10-16T22:36:13.126Z,68794.31
2022-10-16T22:38:40.530Z,68797.34
2022-10-16T22:41:10.991Z,68793.91
2022-10-16T22:43:41.334Z,68774.75
2022-10-16T22:46:11.481Z,68762.44
2022-10-16T22:48:38.690Z,68759.41
2022-10-16T22:51:06.833Z,68748.78
2022-10-16T22:53:34.648Z,68764.53
2022-10-16T22:56:02.246Z,68767.38
2022-10-16T22:58:29.593Z,68742.13
2022-10-16T23:03:25.238Z,68770.22
2022-10-16T23:05:52.599Z,68770.06
2022-10-16T23:08:20.030Z,68764.38
2022-10-16T23:10:48.009Z,68769.47
2022-10-16T23:13:15.549Z,68765.09
2022-10-16T23:15:44.346Z,68769.47
2022-10-16T23:18:12.290Z,68766.53
2022-10-16T23:20:40.049Z,68791.66
2022-10-16T23:23:07.326Z,68783.13
2022-10-16T23:25:34.568Z,68779.72
2022-10-16T23:28:02.110Z,68770.22
2022-10-16T23:30:29.549Z,68769.06
2022-10-16T23:32:56.746Z,68735.84
2022-10-16T23:35:24.044Z,68766.44
2022-10-16T23:37:51.578Z,68765.09
2022-10-16T23:40:18.819Z,68753.00
2022-10-16T23:42:45.995Z,68768.50
2022-10-16T23:45:13.245Z,68765.69
2022-10-16T23:47:41.533Z,68773.28
2022-10-16T23:50:09.785Z,68733.03
2022-10-16T23:52:37.029Z,68742.75
2022-10-16T23:55:05.316Z,68744.44
2022-10-16T23:57:32.752Z,68742.19
